createdAt,value
2023-05-09T00:02:35.353Z,12.07
2023-05-09T00:05:37.198Z,12.07
2023-05-09T00:08:38.785Z,12.03
2023-05-09T00:11:40.833Z,12.07
2023-05-09T00:14:45.631Z,12.07
2023-05-09T00:17:47.314Z,12.04
2023-05-09T00:20:49.446Z,12.08
2023-05-09T00:23:51.034Z,12.11
2023-05-09T00:26:52.629Z,12.10
2023-05-09T00:29:55.984Z,12.03
2023-05-09T00:32:57.559Z,11.94
2023-05-09T00:35:59.167Z,11.80
2023-05-09T00:39:00.793Z,11.83
2023-05-09T00:42:03.640Z,11.84
2023-05-09T00:45:07.401Z,11.82
2023-05-09T00:48:09.051Z,11.79
2023-05-09T00:51:10.722Z,11.80
2023-05-09T00:54:12.474Z,11.74
2023-05-09T00:57:14.374Z,11.75
2023-05-09T01:00:17.816Z,11.77
2023-05-09T01:03:19.980Z,11.76
2023-05-09T01:06:25.564Z,11.73
2023-05-09T01:09:31.755Z,11.72
2023-05-09T01:12:37.310Z,11.66
2023-05-09T01:15:43.821Z,11.63
2023-05-09T01:18:47.346Z,11.58
2023-05-09T01:21:49.725Z,11.52
2023-05-09T01:25:14.496Z,11.55
2023-05-09T01:28:19.138Z,11.52
2023-05-09T01:31:22.905Z,11.52
2023-05-09T01:34:26.273Z,11.45
2023-05-09T01:37:30.517Z,11.39
2023-05-09T01:40:33.804Z,11.37
2023-05-09T01:43:36.988Z,11.33
2023-05-09T01:46:40.517Z,11.30
2023-05-09T01:49:43.217Z,11.27
2023-05-09T01:52:48.057Z,11.15
2023-05-09T01:55:51.064Z,11.11
2023-05-09T01:58:53.677Z,11.09
2023-05-09T02:01:56.847Z,11.06
2023-05-09T02:04:58.683Z,11.01
2023-05-09T02:08:00.430Z,10.89
2023-05-09T02:11:01.983Z,10.87
2023-05-09T02:14:03.629Z,10.84
2023-05-09T02:17:09.571Z,10.84
2023-05-09T02:20:11.638Z,10.85
2023-05-09T02:23:13.674Z,10.88
2023-05-09T02:26:15.234Z,10.88
2023-05-09T02:29:20.104Z,10.94
2023-05-09T02:32:25.760Z,11.01
2023-05-09T02:35:28.986Z,10.95
2023-05-09T02:38:30.600Z,10.96
2023-05-09T02:41:32.397Z,11.00
2023-05-09T02:44:34.629Z,11.01
2023-05-09T02:47:38.053Z,10.99
2023-05-09T02:50:42.817Z,11.02
2023-05-09T02:53:44.555Z,11.03
2023-05-09T02:56:46.421Z,11.03
2023-05-09T02:59:48.425Z,10.93
2023-05-09T03:02:52.514Z,10.91
2023-05-09T03:05:54.570Z,10.87
2023-05-09T03:08:56.845Z,10.84
2023-05-09T03:11:59.542Z,10.80
2023-05-09T03:15:01.520Z,10.72
2023-05-09T03:18:05.563Z,10.65
2023-05-09T03:21:07.334Z,10.59
2023-05-09T03:24:11.086Z,10.55
2023-05-09T03:27:12.982Z,10.59
2023-05-09T03:30:15.030Z,10.63
2023-05-09T03:33:19.746Z,10.68
2023-05-09T03:36:22.074Z,10.69
2023-05-09T03:39:24.479Z,10.71
2023-05-09T03:42:31.013Z,10.70
2023-05-09T03:45:36.185Z,10.69
2023-05-09T03:48:39.712Z,10.72
2023-05-09T03:51:42.273Z,10.72
2023-05-09T03:54:48.507Z,10.79
2023-05-09T03:57:51.035Z,10.82
2023-05-09T04:00:53.703Z,10.84
2023-05-09T04:03:59.470Z,10.85
2023-05-09T04:07:02.868Z,10.85
2023-05-09T04:10:05.075Z,10.84
2023-05-09T04:13:07.597Z,10.88
2023-05-09T04:16:10.308Z,10.85
2023-05-09T04:19:13.454Z,10.86
2023-05-09T04:22:15.201Z,10.91
2023-05-09T04:25:17.069Z,10.94
2023-05-09T04:28:20.271Z,11.01
2023-05-09T04:31:23.280Z,11.04
2023-05-09T04:34:28.124Z,11.08
2023-05-09T04:37:32.808Z,11.14
2023-05-09T04:40:36.982Z,11.18
2023-05-09T04:43:39.477Z,11.28
2023-05-09T04:46:42.244Z,11.40
2023-05-09T04:49:45.398Z,11.53
2023-05-09T04:52:47.126Z,11.67
2023-05-09T04:55:51.986Z,11.85
2023-05-09T04:58:54.493Z,12.00
2023-05-09T05:01:56.277Z,12.14
2023-05-09T05:05:10.849Z,12.30
2023-05-09T05:08:15.846Z,12.46
2023-05-09T05:11:18.138Z,12.53
2023-05-09T05:14:20.809Z,12.56
2023-05-09T05:17:22.588Z,12.61
2023-05-09T05:20:25.819Z,12.60
2023-05-09T05:23:27.477Z,12.60
2023-05-09T05:26:30.239Z,12.67
2023-05-09T05:29:32.357Z,12.77
2023-05-09T05:32:34.680Z,12.80
2023-05-09T05:35:37.830Z,12.86
2023-05-09T05:38:39.460Z,12.90
2023-05-09T05:41:41.353Z,12.94
2023-05-09T05:44:43.422Z,12.91
2023-05-09T05:47:46.690Z,12.97
2023-05-09T05:50:50.409Z,13.10
2023-05-09T05:53:55.904Z,13.17
2023-05-09T05:56:58.589Z,13.23
2023-05-09T06:00:00.381Z,13.32
2023-05-09T06:03:02.143Z,13.38
2023-05-09T06:06:16.935Z,13.41
2023-05-09T06:09:18.653Z,13.52
2023-05-09T06:12:20.510Z,13.64
2023-05-09T06:15:22.283Z,13.74
2023-05-09T06:18:25.275Z,13.66
2023-05-09T06:21:28.698Z,13.66
2023-05-09T06:24:35.613Z,13.78
2023-05-09T06:27:38.779Z,13.87
2023-05-09T06:30:41.192Z,13.90
2023-05-09T06:33:42.808Z,13.95
2023-05-09T06:36:45.853Z,14.01
2023-05-09T06:39:47.440Z,14.08
2023-05-09T06:42:49.019Z,14.13
2023-05-09T06:45:51.211Z,14.29
2023-05-09T06:48:52.810Z,14.39
2023-05-09T06:51:55.728Z,14.41
2023-05-09T06:54:57.377Z,14.34
2023-05-09T06:57:58.997Z,14.45
2023-05-09T07:01:00.840Z,14.53
2023-05-09T07:04:02.414Z,14.61
2023-05-09T07:07:06.000Z,14.74
2023-05-09T07:10:12.103Z,14.97
2023-05-09T07:13:14.213Z,15.08
2023-05-09T07:16:17.925Z,15.12
2023-05-09T07:19:20.356Z,15.16
2023-05-09T07:22:23.448Z,15.33
2023-05-09T07:25:25.234Z,15.48
2023-05-09T07:28:27.022Z,15.54
2023-05-09T07:31:28.679Z,15.58
2023-05-09T07:34:30.510Z,15.69
2023-05-09T07:37:33.553Z,15.77
2023-05-09T07:40:37.157Z,15.89
2023-05-09T07:43:38.677Z,15.91
2023-05-09T07:46:42.047Z,16.03
2023-05-09T07:49:46.344Z,16.01
2023-05-09T07:52:49.364Z,16.07
2023-05-09T07:55:50.892Z,16.24
2023-05-09T07:58:54.337Z,16.35
2023-05-09T08:01:57.307Z,16.43
2023-05-09T08:05:01.429Z,16.50
2023-05-09T08:08:04.787Z,16.62
2023-05-09T08:11:06.347Z,16.62
2023-05-09T08:14:08.099Z,16.61
2023-05-09T08:17:09.852Z,16.67
2023-05-09T08:20:12.429Z,16.68
2023-05-09T08:23:15.438Z,16.90
2023-05-09T08:26:16.982Z,17.04
2023-05-09T08:29:18.596Z,17.13
2023-05-09T08:32:20.379Z,17.28
2023-05-09T08:35:22.069Z,17.39
2023-05-09T08:38:25.188Z,17.46
2023-05-09T08:41:28.138Z,17.56
2023-05-09T08:44:31.003Z,17.73
2023-05-09T08:47:34.531Z,17.72
2023-05-09T08:50:36.276Z,17.45
2023-05-09T08:53:39.606Z,17.45
2023-05-09T08:56:41.613Z,17.60
2023-05-09T08:59:43.770Z,17.60
2023-05-09T09:02:45.558Z,17.59
2023-05-09T09:05:48.480Z,17.65
2023-05-09T09:08:52.376Z,17.63
2023-05-09T09:11:55.667Z,17.64
2023-05-09T09:15:02.814Z,17.66
2023-05-09T09:18:09.748Z,17.68
2023-05-09T09:21:12.518Z,17.68
2023-05-09T09:24:19.116Z,17.70
2023-05-09T09:27:20.650Z,17.64
2023-05-09T09:30:23.618Z,17.71
2023-05-09T09:33:26.713Z,17.76
2023-05-09T09:36:29.123Z,18.00
2023-05-09T09:39:32.096Z,18.39
2023-05-09T09:42:40.461Z,18.47
2023-05-09T09:45:49.528Z,18.59
2023-05-09T09:48:55.174Z,18.71
2023-05-09T09:51:58.249Z,18.70
2023-05-09T09:55:01.279Z,18.93
2023-05-09T09:58:03.057Z,19.08
2023-05-09T10:01:06.173Z,19.15
2023-05-09T10:04:09.339Z,19.13
2023-05-09T10:07:14.548Z,19.13
2023-05-09T10:10:17.922Z,19.32
2023-05-09T10:13:21.102Z,19.46
2023-05-09T10:16:31.946Z,19.58
2023-05-09T10:19:44.135Z,19.71
2023-05-09T10:22:45.972Z,19.42
2023-05-09T10:25:54.443Z,19.16
2023-05-09T10:28:57.336Z,19.33
2023-05-09T10:32:00.005Z,19.27
2023-05-09T10:35:06.021Z,19.41
2023-05-09T10:38:07.903Z,19.73
2023-05-09T10:41:12.394Z,19.78
2023-05-09T10:44:14.309Z,19.84
2023-05-09T10:47:16.976Z,19.50
2023-05-09T10:50:19.250Z,19.46
2023-05-09T10:53:24.207Z,19.66
2023-05-09T10:56:29.235Z,19.68
2023-05-09T10:59:37.831Z,19.72
2023-05-09T11:02:39.581Z,19.67
2023-05-09T11:05:41.484Z,19.76
2023-05-09T11:08:43.050Z,19.52
2023-05-09T11:11:53.003Z,19.42
2023-05-09T11:15:04.435Z,19.35
2023-05-09T11:18:06.868Z,19.32
2023-05-09T11:21:09.518Z,19.30
2023-05-09T11:24:16.445Z,19.44
2023-05-09T11:27:21.245Z,19.63
2023-05-09T11:30:23.133Z,19.45
2023-05-09T11:33:27.494Z,19.35
2023-05-09T11:36:30.201Z,19.49
2023-05-09T11:39:32.006Z,19.39
2023-05-09T11:42:35.012Z,19.41
2023-05-09T11:45:36.857Z,19.77
2023-05-09T11:48:39.469Z,19.67
2023-05-09T11:51:41.610Z,19.53
2023-05-09T11:54:43.647Z,19.55
2023-05-09T11:57:49.017Z,19.45
2023-05-09T12:00:51.728Z,19.20
2023-05-09T12:03:53.776Z,19.10
2023-05-09T12:06:57.676Z,19.10
2023-05-09T12:10:01.914Z,18.91
2023-05-09T12:13:05.320Z,18.84
2023-05-09T12:16:08.859Z,18.87
2023-05-09T12:19:11.663Z,18.71
2023-05-09T12:22:13.226Z,18.75
2023-05-09T12:25:15.057Z,18.89
2023-05-09T12:28:18.948Z,18.98
2023-05-09T12:31:20.993Z,18.89
2023-05-09T12:34:23.087Z,18.92
2023-05-09T12:37:24.847Z,18.95
2023-05-09T12:40:26.917Z,19.09
2023-05-09T12:43:31.398Z,19.08
2023-05-09T12:46:33.537Z,19.06
2023-05-09T12:49:36.541Z,19.11
2023-05-09T12:52:46.986Z,19.12
2023-05-09T12:56:01.915Z,19.12
2023-05-09T12:59:10.674Z,19.11
2023-05-09T13:02:13.548Z,19.30
2023-05-09T13:05:20.161Z,19.51
2023-05-09T13:08:21.730Z,19.59
2023-05-09T13:11:23.298Z,19.48
2023-05-09T13:14:26.882Z,19.36
2023-05-09T13:17:28.946Z,19.26
2023-05-09T13:20:30.834Z,19.32
2023-05-09T13:23:32.437Z,19.55
2023-05-09T13:26:34.353Z,19.58
2023-05-09T13:29:37.352Z,19.83
2023-05-09T13:32:39.133Z,20.18
2023-05-09T13:35:40.862Z,20.23
2023-05-09T13:38:44.811Z,20.64
2023-05-09T13:41:46.321Z,20.84
2023-05-09T13:44:49.468Z,20.72
2023-05-09T13:47:51.226Z,20.41
2023-05-09T13:50:52.915Z,20.57
2023-05-09T13:53:54.528Z,20.64
2023-05-09T13:56:56.023Z,20.48
2023-05-09T13:59:59.057Z,20.32
2023-05-09T14:03:01.484Z,20.86
2023-05-09T14:06:04.455Z,21.20
2023-05-09T14:09:07.335Z,21.46
2023-05-09T14:12:09.615Z,21.09
2023-05-09T14:15:12.856Z,20.73
2023-05-09T14:18:17.727Z,20.70
2023-05-09T14:21:22.027Z,20.60
2023-05-09T14:24:23.929Z,20.49
2023-05-09T14:27:26.414Z,20.36
2023-05-09T14:30:29.465Z,20.90
2023-05-09T14:33:31.168Z,21.34
2023-05-09T14:36:33.150Z,21.40
2023-05-09T14:39:34.983Z,20.66
2023-05-09T14:42:37.218Z,20.78
2023-05-09T14:45:40.463Z,20.59
2023-05-09T14:48:42.142Z,20.64
2023-05-09T14:51:44.451Z,20.28
2023-05-09T14:54:46.147Z,19.92
2023-05-09T14:57:47.702Z,20.17
2023-05-09T15:00:52.822Z,19.92
2023-05-09T15:03:54.456Z,19.81
2023-05-09T15:06:56.268Z,19.76
2023-05-09T15:09:57.985Z,19.58
2023-05-09T15:12:59.730Z,19.56
2023-05-09T15:16:02.821Z,20.18
2023-05-09T15:19:05.798Z,20.52
2023-05-09T15:22:08.652Z,20.33
2023-05-09T15:25:10.803Z,20.10
2023-05-09T15:28:12.586Z,19.75
2023-05-09T15:31:15.692Z,19.60
2023-05-09T15:34:17.199Z,19.54
2023-05-09T15:37:19.006Z,19.50
2023-05-09T15:40:20.577Z,19.41
2023-05-09T15:43:22.722Z,19.32
2023-05-09T15:46:25.770Z,19.28
2023-05-09T15:49:27.393Z,19.24
2023-05-09T15:52:29.542Z,19.19
2023-05-09T15:55:31.423Z,19.15
2023-05-09T15:58:33.377Z,19.09
2023-05-09T16:01:36.501Z,19.08
2023-05-09T16:04:38.601Z,19.07
2023-05-09T16:07:43.178Z,19.02
2023-05-09T16:10:48.843Z,19.00
2023-05-09T16:13:50.400Z,18.98
2023-05-09T16:16:54.303Z,18.92
2023-05-09T16:19:56.442Z,18.90
2023-05-09T16:22:58.006Z,18.86
2023-05-09T16:25:59.558Z,18.79
2023-05-09T16:29:01.389Z,18.76
2023-05-09T16:32:04.510Z,18.77
2023-05-09T16:35:07.505Z,18.80
2023-05-09T16:38:09.749Z,18.84
2023-05-09T16:41:11.369Z,18.87
2023-05-09T16:44:13.463Z,18.85
2023-05-09T16:47:16.670Z,18.86
2023-05-09T16:50:18.309Z,18.88
2023-05-09T16:53:20.304Z,18.83
2023-05-09T16:56:22.710Z,18.79
2023-05-09T16:59:24.629Z,18.72
2023-05-09T17:02:27.821Z,18.70
2023-05-09T17:05:29.405Z,18.69
2023-05-09T17:08:31.823Z,18.68
2023-05-09T17:11:33.533Z,18.68
2023-05-09T17:14:35.503Z,18.66
2023-05-09T17:17:38.478Z,18.62
2023-05-09T17:20:40.558Z,18.60
2023-05-09T17:23:42.597Z,18.58
2023-05-09T17:26:44.259Z,18.54
2023-05-09T17:29:45.896Z,18.51
2023-05-09T17:32:49.406Z,18.49
2023-05-09T17:35:51.140Z,18.44
2023-05-09T17:38:52.708Z,18.36
2023-05-09T17:41:54.700Z,18.30
2023-05-09T17:44:56.570Z,18.28
2023-05-09T17:48:01.360Z,18.25
2023-05-09T17:51:03.042Z,18.18
2023-05-09T17:54:05.653Z,18.15
2023-05-09T17:57:07.510Z,18.11
2023-05-09T18:00:09.739Z,18.05
2023-05-09T18:03:18.884Z,18.00
2023-05-09T18:06:20.437Z,17.96
2023-05-09T18:09:22.805Z,17.94
2023-05-09T18:12:25.708Z,17.91
2023-05-09T18:15:27.503Z,17.85
2023-05-09T18:18:33.042Z,17.82
2023-05-09T18:21:34.618Z,17.78
2023-05-09T18:24:36.860Z,17.71
2023-05-09T18:27:38.589Z,17.68
2023-05-09T18:30:40.298Z,17.64
2023-05-09T18:33:43.831Z,17.59
2023-05-09T18:36:45.404Z,17.55
2023-05-09T18:39:47.822Z,17.51
2023-05-09T18:42:49.456Z,17.45
2023-05-09T18:45:52.029Z,17.38
2023-05-09T18:48:55.300Z,17.35
2023-05-09T18:51:57.023Z,17.32
2023-05-09T18:54:58.718Z,17.31
2023-05-09T18:58:00.383Z,17.23
2023-05-09T19:01:02.444Z,17.19
2023-05-09T19:04:05.673Z,17.15
2023-05-09T19:07:10.109Z,17.07
2023-05-09T19:10:12.412Z,16.97
2023-05-09T19:13:16.091Z,16.91
2023-05-09T19:16:20.398Z,16.86
2023-05-09T19:19:23.546Z,16.79
2023-05-09T19:22:25.106Z,16.73
2023-05-09T19:25:26.784Z,16.67
2023-05-09T19:28:28.306Z,16.60
2023-05-09T19:31:31.321Z,16.53
2023-05-09T19:34:34.416Z,16.50
2023-05-09T19:37:36.383Z,16.47
2023-05-09T19:40:38.082Z,16.39
2023-05-09T19:43:39.646Z,16.40
2023-05-09T19:46:43.281Z,16.40
2023-05-09T19:49:46.431Z,16.39
2023-05-09T19:52:48.058Z,16.35
2023-05-09T19:55:49.762Z,16.32
2023-05-09T19:58:51.577Z,16.30
2023-05-09T20:01:53.264Z,16.26
2023-05-09T20:04:56.359Z,16.24
2023-05-09T20:07:57.964Z,16.19
2023-05-09T20:11:00.163Z,16.15
2023-05-09T20:14:01.842Z,16.15
2023-05-09T20:17:05.332Z,16.10
2023-05-09T20:20:10.228Z,16.06
2023-05-09T20:23:11.903Z,16.05
2023-05-09T20:26:13.518Z,16.01
2023-05-09T20:29:15.360Z,15.98
2023-05-09T20:32:17.726Z,16.01
2023-05-09T20:35:21.038Z,16.02
2023-05-09T20:38:23.123Z,16.02
2023-05-09T20:41:25.709Z,16.01
2023-05-09T20:44:27.951Z,16.03
2023-05-09T20:47:29.622Z,16.01
2023-05-09T20:50:32.776Z,16.06
2023-05-09T20:53:35.069Z,16.01
2023-05-09T20:56:36.683Z,15.87
2023-05-09T20:59:38.254Z,15.89
2023-05-09T21:02:39.910Z,15.93
2023-05-09T21:05:43.329Z,15.90
2023-05-09T21:08:44.929Z,15.96
2023-05-09T21:11:46.585Z,15.93
2023-05-09T21:14:49.062Z,15.88
2023-05-09T21:17:50.917Z,15.82
2023-05-09T21:20:54.183Z,15.72
2023-05-09T21:23:55.913Z,15.65
2023-05-09T21:26:58.357Z,15.61
2023-05-09T21:30:00.350Z,15.61
2023-05-09T21:33:03.799Z,15.57
2023-05-09T21:36:08.465Z,15.47
2023-05-09T21:39:10.405Z,15.37
2023-05-09T21:42:12.110Z,15.37
2023-05-09T21:45:13.741Z,15.38
2023-05-09T21:48:15.441Z,15.31
2023-05-09T21:51:18.562Z,15.29
2023-05-09T21:54:20.970Z,15.23
2023-05-09T21:57:22.613Z,15.19
2023-05-09T22:00:24.841Z,15.18
2023-05-09T22:03:27.357Z,15.11
2023-05-09T22:06:31.608Z,15.13
2023-05-09T22:09:33.540Z,15.13
2023-05-09T22:12:35.212Z,15.12
2023-05-09T22:15:36.741Z,15.07
2023-05-09T22:18:41.189Z,15.03
2023-05-09T22:21:48.542Z,15.04
2023-05-09T22:24:50.304Z,15.02
2023-05-09T22:27:51.952Z,15.02
2023-05-09T22:30:53.574Z,14.96
2023-05-09T22:33:55.192Z,14.92
2023-05-09T22:36:58.847Z,14.91
2023-05-09T22:40:03.494Z,14.88
2023-05-09T22:43:05.461Z,14.91
2023-05-09T22:46:07.137Z,14.86
2023-05-09T22:49:09.193Z,14.85
2023-05-09T22:52:12.700Z,14.88
2023-05-09T22:55:14.376Z,14.86
2023-05-09T22:58:16.214Z,14.81
2023-05-09T23:01:18.193Z,14.78
2023-05-09T23:04:20.104Z,14.77
2023-05-09T23:07:23.277Z,14.82
2023-05-09T23:10:24.964Z,14.81
2023-05-09T23:13:26.634Z,14.82
2023-05-09T23:16:28.199Z,14.81
2023-05-09T23:19:30.260Z,14.79
2023-05-09T23:22:33.230Z,14.77
2023-05-09T23:25:34.818Z,14.77
2023-05-09T23:28:36.672Z,14.76
2023-05-09T23:31:38.675Z,14.72
2023-05-09T23:34:40.333Z,14.68
2023-05-09T23:37:43.489Z,14.71
2023-05-09T23:40:46.157Z,14.75
2023-05-09T23:43:47.951Z,14.69
2023-05-09T23:46:49.678Z,14.66
2023-05-09T23:49:51.369Z,14.67
2023-05-09T23:52:54.663Z,14.67
2023-05-09T23:55:56.423Z,14.66
2023-05-09T23:58:58.076Z,14.67
